KPDX/PDX METAR and TAF weather

Enter ICAO airport designator
Station Type Date Time Source
KPDX METAR 2019/08/25 17:53 UTC NOAA

KPDX 251753Z 29007KT 10SM BKN031 20/11 A3019 RMK AO2 SLP222 T02000106 10200 20150 51006 $


Station Type Date Time Source
KPDX Decoded METAR 2019/08/25 17:53 UTC NOAA

Station name not available
Aug 25, 2019 - 01:53 PM EDT / 2019.08.25 1753 UTC
Wind: from the WNW (290 degrees) at 8 MPH (7 KT):0
Visibility: 10 mile(s):0
Sky conditions: mostly cloudy
Temperature: 68.0 F (20.0 C)
Dew Point: 51.1 F (10.6 C)
Relative Humidity: 54%
Pressure (altimeter): 30.19 in. Hg (1022 hPa)
Pressure tendency: 0.02 inches (0.6 hPa) higher than three hours ago
ob: KPDX 251753Z 29007KT 10SM BKN031 20/11 A3019 RMK AO2 SLP222 T02000106 10200 20150 51006
cycle: 18

Station Type Date Time Source
KPDX TAF 2019/08/25 18:40 UTC NOAA

TAF KPDX 251738Z 2518/2618 30005KT P6SM FEW025 SCT050
FM252200 32010KT P6SM FEW050
FM260900 VRB05KT P6SM SKC
FM261400 VRB03KT P6SM SCT025

Example: see airport list